sensor_id;sensor_type;location;lat;lon;timestamp;P1;durP1;ratioP1;P2;durP2;ratioP2
27740;SDS011;15134;48.768;9.184;2023-08-17T00:00:29;1085.93;;;982.73;;
27740;SDS011;15134;48.768;9.184;2023-08-17T00:02:54;1086.75;;;983.55;;
27740;SDS011;15134;48.768;9.184;2023-08-17T00:05:20;1085.45;;;982.55;;
27740;SDS011;15134;48.768;9.184;2023-08-17T00:07:47;1090.70;;;987.40;;
27740;SDS011;15134;48.768;9.184;2023-08-17T00:10:13;1089.00;;;985.70;;
27740;SDS011;15134;48.768;9.184;2023-08-17T00:12:39;1087.70;;;984.33;;
27740;SDS011;15134;48.768;9.184;2023-08-17T00:15:05;1087.40;;;984.33;;
27740;SDS011;15134;48.768;9.184;2023-08-17T00:17:31;1084.47;;;981.57;;
27740;SDS011;15134;48.768;9.184;2023-08-17T00:19:56;1085.88;;;982.78;;
27740;SDS011;15134;48.768;9.184;2023-08-17T00:22:22;1086.30;;;983.20;;
27740;SDS011;15134;48.768;9.184;2023-08-17T00:24:48;1089.78;;;986.50;;
27740;SDS011;15134;48.768;9.184;2023-08-17T00:27:14;1090.05;;;986.95;;
27740;SDS011;15134;48.768;9.184;2023-08-17T00:29:39;1088.90;;;985.87;;
27740;SDS011;15134;48.768;9.184;2023-08-17T00:32:05;1092.53;;;989.25;;
27740;SDS011;15134;48.768;9.184;2023-08-17T00:34:31;1090.10;;;987.13;;
27740;SDS011;15134;48.768;9.184;2023-08-17T00:36:58;1088.85;;;985.80;;
27740;SDS011;15134;48.768;9.184;2023-08-17T00:39:24;1092.33;;;989.30;;
27740;SDS011;15134;48.768;9.184;2023-08-17T00:41:50;1090.68;;;987.45;;
27740;SDS011;15134;48.768;9.184;2023-08-17T00:44:15;1089.53;;;986.13;;
27740;SDS011;15134;48.768;9.184;2023-08-17T00:46:41;1085.88;;;982.88;;
27740;SDS011;15134;48.768;9.184;2023-08-17T00:49:07;1084.95;;;981.85;;
27740;SDS011;15134;48.768;9.184;2023-08-17T00:51:33;1087.70;;;984.65;;
27740;SDS011;15134;48.768;9.184;2023-08-17T00:54:01;1086.35;;;983.28;;
27740;SDS011;15134;48.768;9.184;2023-08-17T00:56:28;1089.35;;;986.13;;
27740;SDS011;15134;48.768;9.184;2023-08-17T00:58:54;1090.55;;;987.35;;
27740;SDS011;15134;48.768;9.184;2023-08-17T01:01:21;1089.77;;;986.73;;
27740;SDS011;15134;48.768;9.184;2023-08-17T01:03:48;1087.00;;;984.00;;
27740;SDS011;15134;48.768;9.184;2023-08-17T01:06:15;1087.03;;;984.13;;
27740;SDS011;15134;48.768;9.184;2023-08-17T01:08:41;1089.13;;;985.97;;
27740;SDS011;15134;48.768;9.184;2023-08-17T01:11:29;1090.45;;;987.17;;
27740;SDS011;15134;48.768;9.184;2023-08-17T01:14:46;1088.85;;;985.83;;
27740;SDS011;15134;48.768;9.184;2023-08-17T01:16:59;1089.38;;;986.20;;
27740;SDS011;15134;48.768;9.184;2023-08-17T01:19:29;1086.60;;;983.75;;
27740;SDS011;15134;48.768;9.184;2023-08-17T01:22:05;1084.28;;;981.28;;
27740;SDS011;15134;48.768;9.184;2023-08-17T01:24:33;1085.70;;;982.63;;
27740;SDS011;15134;48.768;9.184;2023-08-17T01:26:59;1082.35;;;979.63;;
27740;SDS011;15134;48.768;9.184;2023-08-17T01:29:25;1091.40;;;988.25;;
27740;SDS011;15134;48.768;9.184;2023-08-17T01:34:37;1086.90;;;983.83;;
27740;SDS011;15134;48.768;9.184;2023-08-17T01:37:06;1093.83;;;990.50;;
27740;SDS011;15134;48.768;9.184;2023-08-17T01:39:37;1093.60;;;990.47;;
27740;SDS011;15134;48.768;9.184;2023-08-17T01:42:05;1091.15;;;988.13;;
27740;SDS011;15134;48.768;9.184;2023-08-17T01:44:32;1092.90;;;989.88;;
27740;SDS011;15134;48.768;9.184;2023-08-17T01:46:58;1095.53;;;992.42;;
27740;SDS011;15134;48.768;9.184;2023-08-17T01:49:24;1090.60;;;987.40;;
27740;SDS011;15134;48.768;9.184;2023-08-17T01:51:51;1090.63;;;987.70;;
27740;SDS011;15134;48.768;9.184;2023-08-17T01:54:17;1098.97;;;995.60;;
27740;SDS011;15134;48.768;9.184;2023-08-17T01:56:43;1093.75;;;990.58;;
27740;SDS011;15134;48.768;9.184;2023-08-17T01:59:09;1094.28;;;990.95;;
27740;SDS011;15134;48.768;9.184;2023-08-17T02:01:35;1090.10;;;987.07;;
27740;SDS011;15134;48.768;9.184;2023-08-17T02:04:03;1092.07;;;988.75;;
27740;SDS011;15134;48.768;9.184;2023-08-17T02:06:29;1088.80;;;985.92;;
27740;SDS011;15134;48.768;9.184;2023-08-17T02:08:55;1088.65;;;985.63;;
27740;SDS011;15134;48.768;9.184;2023-08-17T02:11:22;1093.97;;;990.67;;
27740;SDS011;15134;48.768;9.184;2023-08-17T02:13:49;1092.80;;;989.60;;
27740;SDS011;15134;48.768;9.184;2023-08-17T02:16:15;1089.60;;;986.50;;
27740;SDS011;15134;48.768;9.184;2023-08-17T02:18:42;1082.35;;;979.75;;
27740;SDS011;15134;48.768;9.184;2023-08-17T02:21:09;1090.90;;;987.80;;
27740;SDS011;15134;48.768;9.184;2023-08-17T02:23:38;1088.28;;;985.15;;
27740;SDS011;15134;48.768;9.184;2023-08-17T02:26:04;1089.50;;;986.57;;
27740;SDS011;15134;48.768;9.184;2023-08-17T02:28:30;1086.20;;;983.20;;
27740;SDS011;15134;48.768;9.184;2023-08-17T02:30:56;1084.57;;;981.58;;
27740;SDS011;15134;48.768;9.184;2023-08-17T02:33:26;1087.40;;;984.67;;
27740;SDS011;15134;48.768;9.184;2023-08-17T02:35:51;1094.20;;;991.00;;
27740;SDS011;15134;48.768;9.184;2023-08-17T02:38:17;1085.38;;;982.60;;
27740;SDS011;15134;48.768;9.184;2023-08-17T02:40:43;1086.77;;;983.97;;
27740;SDS011;15134;48.768;9.184;2023-08-17T02:43:10;1090.07;;;986.92;;
27740;SDS011;15134;48.768;9.184;2023-08-17T02:45:36;1082.03;;;979.58;;
27740;SDS011;15134;48.768;9.184;2023-08-17T02:48:02;1088.70;;;985.80;;
27740;SDS011;15134;48.768;9.184;2023-08-17T02:50:28;1085.80;;;982.88;;
27740;SDS011;15134;48.768;9.184;2023-08-17T02:52:54;1086.23;;;983.50;;
27740;SDS011;15134;48.768;9.184;2023-08-17T02:55:20;1089.75;;;986.95;;
27740;SDS011;15134;48.768;9.184;2023-08-17T02:57:45;1087.30;;;984.17;;
27740;SDS011;15134;48.768;9.184;2023-08-17T03:00:17;1084.90;;;982.13;;
27740;SDS011;15134;48.768;9.184;2023-08-17T03:02:45;1084.40;;;981.28;;
27740;SDS011;15134;48.768;9.184;2023-08-17T03:05:11;1086.35;;;983.30;;
27740;SDS011;15134;48.768;9.184;2023-08-17T03:07:38;1084.15;;;981.40;;
27740;SDS011;15134;48.768;9.184;2023-08-17T03:10:03;1080.05;;;977.35;;
27740;SDS011;15134;48.768;9.184;2023-08-17T03:12:30;1084.45;;;981.40;;
27740;SDS011;15134;48.768;9.184;2023-08-17T03:14:55;1075.20;;;972.63;;
27740;SDS011;15134;48.768;9.184;2023-08-17T03:17:22;1081.97;;;979.15;;
27740;SDS011;15134;48.768;9.184;2023-08-17T03:19:47;1085.47;;;982.47;;
27740;SDS011;15134;48.768;9.184;2023-08-17T03:22:15;1085.13;;;982.00;;
27740;SDS011;15134;48.768;9.184;2023-08-17T03:24:41;1092.40;;;989.13;;
27740;SDS011;15134;48.768;9.184;2023-08-17T03:27:06;1085.28;;;982.10;;
27740;SDS011;15134;48.768;9.184;2023-08-17T03:29:33;1084.38;;;981.20;;
27740;SDS011;15134;48.768;9.184;2023-08-17T03:31:59;1081.15;;;978.60;;
27740;SDS011;15134;48.768;9.184;2023-08-17T03:34:25;1088.35;;;985.25;;
27740;SDS011;15134;48.768;9.184;2023-08-17T03:36:51;1085.70;;;982.60;;
27740;SDS011;15134;48.768;9.184;2023-08-17T03:39:17;1082.63;;;980.05;;
27740;SDS011;15134;48.768;9.184;2023-08-17T03:41:42;1082.43;;;979.80;;
27740;SDS011;15134;48.768;9.184;2023-08-17T03:44:09;1080.40;;;977.60;;
27740;SDS011;15134;48.768;9.184;2023-08-17T03:46:38;1080.70;;;977.90;;
27740;SDS011;15134;48.768;9.184;2023-08-17T03:49:04;1081.13;;;978.35;;
27740;SDS011;15134;48.768;9.184;2023-08-17T03:51:29;1084.40;;;981.17;;
27740;SDS011;15134;48.768;9.184;2023-08-17T03:53:55;1081.15;;;977.97;;
27740;SDS011;15134;48.768;9.184;2023-08-17T03:56:23;1089.07;;;985.50;;
27740;SDS011;15134;48.768;9.184;2023-08-17T03:58:50;1077.97;;;974.92;;
27740;SDS011;15134;48.768;9.184;2023-08-17T04:01:16;1081.40;;;978.20;;
27740;SDS011;15134;48.768;9.184;2023-08-17T04:03:42;1088.80;;;984.92;;
27740;SDS011;15134;48.768;9.184;2023-08-17T04:06:09;1086.13;;;982.40;;
27740;SDS011;15134;48.768;9.184;2023-08-17T04:08:38;1080.15;;;976.95;;
27740;SDS011;15134;48.768;9.184;2023-08-17T04:11:04;1079.03;;;975.90;;
27740;SDS011;15134;48.768;9.184;2023-08-17T04:13:30;1074.73;;;971.70;;
27740;SDS011;15134;48.768;9.184;2023-08-17T04:15:56;1078.63;;;975.40;;
27740;SDS011;15134;48.768;9.184;2023-08-17T04:18:22;1071.23;;;968.50;;
27740;SDS011;15134;48.768;9.184;2023-08-17T04:20:49;1074.10;;;971.05;;
27740;SDS011;15134;48.768;9.184;2023-08-17T04:23:16;1077.18;;;974.10;;
27740;SDS011;15134;48.768;9.184;2023-08-17T04:25:42;1072.87;;;969.83;;
27740;SDS011;15134;48.768;9.184;2023-08-17T04:28:09;1074.53;;;971.30;;
27740;SDS011;15134;48.768;9.184;2023-08-17T04:30:35;1079.57;;;976.25;;
27740;SDS011;15134;48.768;9.184;2023-08-17T04:33:03;1073.90;;;970.97;;
27740;SDS011;15134;48.768;9.184;2023-08-17T04:35:29;1069.88;;;966.95;;
27740;SDS011;15134;48.768;9.184;2023-08-17T04:37:55;1073.27;;;969.83;;
27740;SDS011;15134;48.768;9.184;2023-08-17T04:40:22;1073.25;;;970.00;;
27740;SDS011;15134;48.768;9.184;2023-08-17T04:42:48;1075.60;;;972.30;;
27740;SDS011;15134;48.768;9.184;2023-08-17T04:45:14;1075.43;;;972.05;;
27740;SDS011;15134;48.768;9.184;2023-08-17T04:47:43;1072.18;;;969.15;;
27740;SDS011;15134;48.768;9.184;2023-08-17T04:50:08;1075.18;;;971.88;;
27740;SDS011;15134;48.768;9.184;2023-08-17T04:52:34;1070.78;;;967.63;;
27740;SDS011;15134;48.768;9.184;2023-08-17T04:55:01;1074.65;;;971.42;;
27740;SDS011;15134;48.768;9.184;2023-08-17T04:57:28;1075.50;;;972.13;;
27740;SDS011;15134;48.768;9.184;2023-08-17T04:59:55;1072.90;;;969.90;;
27740;SDS011;15134;48.768;9.184;2023-08-17T05:02:22;1076.77;;;973.37;;
27740;SDS011;15134;48.768;9.184;2023-08-17T05:04:48;1076.38;;;972.88;;
27740;SDS011;15134;48.768;9.184;2023-08-17T05:07:14;1071.90;;;968.40;;
27740;SDS011;15134;48.768;9.184;2023-08-17T05:09:39;1080.30;;;976.30;;
27740;SDS011;15134;48.768;9.184;2023-08-17T05:12:06;1083.18;;;978.00;;
27740;SDS011;15134;48.768;9.184;2023-08-17T05:14:32;1080.53;;;976.13;;
27740;SDS011;15134;48.768;9.184;2023-08-17T05:16:58;1086.10;;;981.35;;
27740;SDS011;15134;48.768;9.184;2023-08-17T05:19:24;1083.10;;;978.00;;
27740;SDS011;15134;48.768;9.184;2023-08-17T05:21:53;1081.82;;;977.92;;
27740;SDS011;15134;48.768;9.184;2023-08-17T05:24:21;1084.55;;;980.55;;
27740;SDS011;15134;48.768;9.184;2023-08-17T05:26:47;1083.93;;;979.75;;
27740;SDS011;15134;48.768;9.184;2023-08-17T05:29:13;1082.72;;;979.05;;
27740;SDS011;15134;48.768;9.184;2023-08-17T05:31:40;1091.47;;;987.00;;
27740;SDS011;15134;48.768;9.184;2023-08-17T05:34:05;1083.13;;;978.42;;
27740;SDS011;15134;48.768;9.184;2023-08-17T05:36:32;1087.50;;;982.10;;
27740;SDS011;15134;48.768;9.184;2023-08-17T05:38:58;1093.38;;;989.03;;
27740;SDS011;15134;48.768;9.184;2023-08-17T05:41:24;1089.00;;;984.97;;
27740;SDS011;15134;48.768;9.184;2023-08-17T05:43:50;1089.25;;;985.22;;
27740;SDS011;15134;48.768;9.184;2023-08-17T05:46:16;1090.50;;;986.70;;
27740;SDS011;15134;48.768;9.184;2023-08-17T05:48:43;1085.75;;;982.15;;
27740;SDS011;15134;48.768;9.184;2023-08-17T05:51:09;1091.50;;;987.90;;
27740;SDS011;15134;48.768;9.184;2023-08-17T05:53:35;1090.10;;;986.45;;
27740;SDS011;15134;48.768;9.184;2023-08-17T05:56:00;1088.10;;;984.47;;
27740;SDS011;15134;48.768;9.184;2023-08-17T05:58:26;1092.28;;;988.47;;
27740;SDS011;15134;48.768;9.184;2023-08-17T06:00:54;1091.55;;;987.83;;
27740;SDS011;15134;48.768;9.184;2023-08-17T06:03:35;1095.93;;;992.03;;
27740;SDS011;15134;48.768;9.184;2023-08-17T06:06:03;1100.15;;;995.85;;
27740;SDS011;15134;48.768;9.184;2023-08-17T06:08:30;1095.78;;;991.85;;
27740;SDS011;15134;48.768;9.184;2023-08-17T06:10:56;1092.00;;;988.10;;
27740;SDS011;15134;48.768;9.184;2023-08-17T06:13:22;1101.40;;;997.25;;
27740;SDS011;15134;48.768;9.184;2023-08-17T06:15:55;1102.30;;;998.00;;
27740;SDS011;15134;48.768;9.184;2023-08-17T06:18:22;1097.70;;;993.63;;
27740;SDS011;15134;48.768;9.184;2023-08-17T06:20:47;1094.18;;;990.30;;
27740;SDS011;15134;48.768;9.184;2023-08-17T06:23:17;1102.50;;;998.20;;
27740;SDS011;15134;48.768;9.184;2023-08-17T06:25:42;1100.83;;;996.50;;
27740;SDS011;15134;48.768;9.184;2023-08-17T06:28:08;1099.38;;;995.60;;
27740;SDS011;15134;48.768;9.184;2023-08-17T06:30:34;1094.23;;;990.33;;
27740;SDS011;15134;48.768;9.184;2023-08-17T06:32:59;1100.10;;;995.95;;
27740;SDS011;15134;48.768;9.184;2023-08-17T06:35:25;1106.80;;;999.90;;
27740;SDS011;15134;48.768;9.184;2023-08-17T06:37:51;1102.13;;;997.63;;
27740;SDS011;15134;48.768;9.184;2023-08-17T06:40:19;1100.13;;;996.03;;
27740;SDS011;15134;48.768;9.184;2023-08-17T06:42:45;1107.18;;;999.90;;
27740;SDS011;15134;48.768;9.184;2023-08-17T06:45:10;1108.03;;;999.90;;
27740;SDS011;15134;48.768;9.184;2023-08-17T06:47:36;1106.32;;;999.90;;
27740;SDS011;15134;48.768;9.184;2023-08-17T06:50:02;1108.13;;;999.90;;
27740;SDS011;15134;48.768;9.184;2023-08-17T06:52:28;1105.93;;;999.90;;
27740;SDS011;15134;48.768;9.184;2023-08-17T06:54:54;1108.78;;;999.90;;
27740;SDS011;15134;48.768;9.184;2023-08-17T06:57:22;1106.20;;;999.90;;
27740;SDS011;15134;48.768;9.184;2023-08-17T06:59:50;1111.78;;;999.90;;
27740;SDS011;15134;48.768;9.184;2023-08-17T07:02:16;1116.43;;;999.90;;
27740;SDS011;15134;48.768;9.184;2023-08-17T07:04:42;1122.65;;;999.90;;
27740;SDS011;15134;48.768;9.184;2023-08-17T07:07:07;1137.80;;;999.90;;
27740;SDS011;15134;48.768;9.184;2023-08-17T07:09:33;1162.50;;;999.90;;
27740;SDS011;15134;48.768;9.184;2023-08-17T07:11:59;1174.67;;;999.90;;
27740;SDS011;15134;48.768;9.184;2023-08-17T07:14:25;1185.15;;;999.90;;
27740;SDS011;15134;48.768;9.184;2023-08-17T07:16:50;1204.60;;;999.90;;
27740;SDS011;15134;48.768;9.184;2023-08-17T07:19:16;1220.68;;;999.90;;
27740;SDS011;15134;48.768;9.184;2023-08-17T07:21:43;1240.68;;;999.90;;
27740;SDS011;15134;48.768;9.184;2023-08-17T07:24:13;1256.50;;;999.90;;
27740;SDS011;15134;48.768;9.184;2023-08-17T07:26:40;1269.82;;;999.90;;
27740;SDS011;15134;48.768;9.184;2023-08-17T07:29:06;1276.55;;;999.90;;
27740;SDS011;15134;48.768;9.184;2023-08-17T07:31:34;1285.95;;;999.90;;
27740;SDS011;15134;48.768;9.184;2023-08-17T07:34:03;1295.35;;;999.90;;
27740;SDS011;15134;48.768;9.184;2023-08-17T07:36:32;1303.18;;;999.90;;
27740;SDS011;15134;48.768;9.184;2023-08-17T07:38:59;1309.85;;;999.90;;
27740;SDS011;15134;48.768;9.184;2023-08-17T07:41:24;1319.77;;;999.90;;
27740;SDS011;15134;48.768;9.184;2023-08-17T07:43:51;1323.63;;;999.90;;
27740;SDS011;15134;48.768;9.184;2023-08-17T07:46:16;1332.32;;;999.90;;
27740;SDS011;15134;48.768;9.184;2023-08-17T07:48:43;1336.50;;;999.90;;
27740;SDS011;15134;48.768;9.184;2023-08-17T07:51:11;1333.13;;;999.90;;
27740;SDS011;15134;48.768;9.184;2023-08-17T07:53:37;1331.82;;;999.90;;
27740;SDS011;15134;48.768;9.184;2023-08-17T07:56:02;1334.60;;;999.90;;
27740;SDS011;15134;48.768;9.184;2023-08-17T07:58:28;1337.17;;;999.90;;
27740;SDS011;15134;48.768;9.184;2023-08-17T08:00:54;1333.67;;;999.90;;
27740;SDS011;15134;48.768;9.184;2023-08-17T08:03:20;1339.17;;;999.90;;
27740;SDS011;15134;48.768;9.184;2023-08-17T08:05:45;1341.77;;;999.90;;
27740;SDS011;15134;48.768;9.184;2023-08-17T08:08:12;1344.00;;;999.90;;
27740;SDS011;15134;48.768;9.184;2023-08-17T08:10:39;1354.78;;;999.90;;
27740;SDS011;15134;48.768;9.184;2023-08-17T08:13:05;1354.45;;;999.90;;
27740;SDS011;15134;48.768;9.184;2023-08-17T08:15:32;1358.43;;;999.90;;
27740;SDS011;15134;48.768;9.184;2023-08-17T08:17:58;1364.30;;;999.90;;
27740;SDS011;15134;48.768;9.184;2023-08-17T08:20:24;1366.70;;;999.90;;
27740;SDS011;15134;48.768;9.184;2023-08-17T08:22:50;1365.40;;;999.90;;
27740;SDS011;15134;48.768;9.184;2023-08-17T08:25:15;1365.10;;;999.90;;
27740;SDS011;15134;48.768;9.184;2023-08-17T08:27:41;1365.60;;;999.90;;
27740;SDS011;15134;48.768;9.184;2023-08-17T08:30:07;1369.10;;;999.90;;
27740;SDS011;15134;48.768;9.184;2023-08-17T08:32:33;1374.32;;;999.90;;
27740;SDS011;15134;48.768;9.184;2023-08-17T08:34:58;1374.30;;;999.90;;
27740;SDS011;15134;48.768;9.184;2023-08-17T08:37:24;1375.03;;;999.90;;
27740;SDS011;15134;48.768;9.184;2023-08-17T08:39:51;1374.72;;;999.90;;
27740;SDS011;15134;48.768;9.184;2023-08-17T08:42:23;1369.47;;;999.90;;
27740;SDS011;15134;48.768;9.184;2023-08-17T08:44:50;1366.25;;;999.90;;
27740;SDS011;15134;48.768;9.184;2023-08-17T08:47:17;1366.10;;;999.90;;
27740;SDS011;15134;48.768;9.184;2023-08-17T08:49:53;1366.82;;;999.90;;
27740;SDS011;15134;48.768;9.184;2023-08-17T08:52:33;1375.15;;;999.90;;
27740;SDS011;15134;48.768;9.184;2023-08-17T08:55:12;1370.82;;;999.90;;
27740;SDS011;15134;48.768;9.184;2023-08-17T08:57:42;1372.97;;;999.90;;
27740;SDS011;15134;48.768;9.184;2023-08-17T09:00:11;1376.43;;;999.90;;
27740;SDS011;15134;48.768;9.184;2023-08-17T09:02:37;1378.05;;;999.90;;
27740;SDS011;15134;48.768;9.184;2023-08-17T09:05:06;1378.78;;;999.90;;
27740;SDS011;15134;48.768;9.184;2023-08-17T09:07:37;1376.80;;;999.90;;
27740;SDS011;15134;48.768;9.184;2023-08-17T09:10:06;1377.05;;;999.90;;
27740;SDS011;15134;48.768;9.184;2023-08-17T09:12:33;1379.22;;;999.90;;
27740;SDS011;15134;48.768;9.184;2023-08-17T09:14:58;1381.85;;;999.90;;
27740;SDS011;15134;48.768;9.184;2023-08-17T09:17:25;1376.37;;;999.90;;
27740;SDS011;15134;48.768;9.184;2023-08-17T09:19:51;1374.45;;;999.90;;
27740;SDS011;15134;48.768;9.184;2023-08-17T09:22:23;1378.00;;;999.90;;
27740;SDS011;15134;48.768;9.184;2023-08-17T09:24:50;1377.45;;;999.90;;
27740;SDS011;15134;48.768;9.184;2023-08-17T09:27:23;1378.43;;;999.90;;
27740;SDS011;15134;48.768;9.184;2023-08-17T09:29:48;1379.07;;;999.90;;
27740;SDS011;15134;48.768;9.184;2023-08-17T09:32:14;1379.17;;;999.90;;
27740;SDS011;15134;48.768;9.184;2023-08-17T09:34:41;1378.30;;;999.90;;
27740;SDS011;15134;48.768;9.184;2023-08-17T09:37:09;1379.50;;;999.90;;
27740;SDS011;15134;48.768;9.184;2023-08-17T09:39:38;1373.65;;;999.90;;
27740;SDS011;15134;48.768;9.184;2023-08-17T09:42:03;1378.17;;;999.90;;
27740;SDS011;15134;48.768;9.184;2023-08-17T09:44:30;1382.03;;;999.90;;
27740;SDS011;15134;48.768;9.184;2023-08-17T09:46:58;1377.03;;;999.90;;
27740;SDS011;15134;48.768;9.184;2023-08-17T09:49:24;1378.28;;;999.90;;
27740;SDS011;15134;48.768;9.184;2023-08-17T09:51:50;1371.10;;;999.90;;
27740;SDS011;15134;48.768;9.184;2023-08-17T09:54:22;1367.60;;;999.90;;
27740;SDS011;15134;48.768;9.184;2023-08-17T09:56:52;1366.90;;;999.90;;
27740;SDS011;15134;48.768;9.184;2023-08-17T09:59:18;1349.28;;;999.90;;
27740;SDS011;15134;48.768;9.184;2023-08-17T10:01:48;1337.43;;;999.90;;
27740;SDS011;15134;48.768;9.184;2023-08-17T10:04:22;1335.10;;;999.90;;
27740;SDS011;15134;48.768;9.184;2023-08-17T10:06:50;1331.78;;;999.90;;
27740;SDS011;15134;48.768;9.184;2023-08-17T10:09:21;1323.43;;;999.90;;
27740;SDS011;15134;48.768;9.184;2023-08-17T10:11:51;1315.30;;;999.90;;
27740;SDS011;15134;48.768;9.184;2023-08-17T10:14:42;1309.18;;;999.90;;
27740;SDS011;15134;48.768;9.184;2023-08-17T10:17:12;1300.85;;;999.90;;
27740;SDS011;15134;48.768;9.184;2023-08-17T10:22:54;1290.18;;;999.90;;
27740;SDS011;15134;48.768;9.184;2023-08-17T10:25:28;1291.50;;;999.90;;
27740;SDS011;15134;48.768;9.184;2023-08-17T10:27:54;1282.32;;;999.90;;
27740;SDS011;15134;48.768;9.184;2023-08-17T10:30:22;1269.88;;;999.90;;
27740;SDS011;15134;48.768;9.184;2023-08-17T10:32:47;1268.13;;;999.90;;
27740;SDS011;15134;48.768;9.184;2023-08-17T10:35:14;1268.13;;;999.90;;
27740;SDS011;15134;48.768;9.184;2023-08-17T10:37:40;1268.25;;;999.90;;
27740;SDS011;15134;48.768;9.184;2023-08-17T10:40:06;1266.28;;;999.90;;
27740;SDS011;15134;48.768;9.184;2023-08-17T10:42:33;1265.60;;;999.90;;
27740;SDS011;15134;48.768;9.184;2023-08-17T10:47:37;1250.53;;;999.90;;
27740;SDS011;15134;48.768;9.184;2023-08-17T10:50:06;1252.10;;;999.90;;
27740;SDS011;15134;48.768;9.184;2023-08-17T10:52:50;1246.65;;;999.90;;
27740;SDS011;15134;48.768;9.184;2023-08-17T10:55:56;1245.38;;;999.90;;
27740;SDS011;15134;48.768;9.184;2023-08-17T10:58:16;1243.18;;;999.90;;
27740;SDS011;15134;48.768;9.184;2023-08-17T11:00:42;1245.93;;;999.90;;
27740;SDS011;15134;48.768;9.184;2023-08-17T11:03:09;1246.05;;;999.90;;
27740;SDS011;15134;48.768;9.184;2023-08-17T11:08:28;1249.93;;;999.90;;
27740;SDS011;15134;48.768;9.184;2023-08-17T11:11:11;1242.35;;;999.90;;
27740;SDS011;15134;48.768;9.184;2023-08-17T11:13:38;1246.53;;;999.90;;
27740;SDS011;15134;48.768;9.184;2023-08-17T11:16:11;1247.38;;;999.90;;
27740;SDS011;15134;48.768;9.184;2023-08-17T11:18:38;1246.30;;;999.90;;
27740;SDS011;15134;48.768;9.184;2023-08-17T11:21:06;1246.88;;;999.90;;
27740;SDS011;15134;48.768;9.184;2023-08-17T11:23:33;1245.72;;;999.90;;
27740;SDS011;15134;48.768;9.184;2023-08-17T11:26:01;1248.13;;;999.90;;
27740;SDS011;15134;48.768;9.184;2023-08-17T11:28:29;1254.65;;;999.90;;
27740;SDS011;15134;48.768;9.184;2023-08-17T11:31:02;1247.20;;;999.90;;
27740;SDS011;15134;48.768;9.184;2023-08-17T11:33:29;1238.85;;;999.90;;
27740;SDS011;15134;48.768;9.184;2023-08-17T11:35:56;1241.75;;;999.90;;
27740;SDS011;15134;48.768;9.184;2023-08-17T11:38:23;1234.97;;;999.90;;
27740;SDS011;15134;48.768;9.184;2023-08-17T11:40:49;1237.87;;;999.90;;
27740;SDS011;15134;48.768;9.184;2023-08-17T11:43:15;1236.18;;;999.90;;
27740;SDS011;15134;48.768;9.184;2023-08-17T11:45:41;1238.03;;;999.90;;
27740;SDS011;15134;48.768;9.184;2023-08-17T11:48:07;1238.00;;;999.90;;
27740;SDS011;15134;48.768;9.184;2023-08-17T11:50:34;1238.32;;;999.90;;
27740;SDS011;15134;48.768;9.184;2023-08-17T11:53:00;1234.70;;;999.90;;
27740;SDS011;15134;48.768;9.184;2023-08-17T11:55:26;1237.18;;;999.90;;
27740;SDS011;15134;48.768;9.184;2023-08-17T11:57:52;1245.05;;;999.90;;
27740;SDS011;15134;48.768;9.184;2023-08-17T12:00:19;1238.13;;;999.90;;
27740;SDS011;15134;48.768;9.184;2023-08-17T12:02:48;1239.65;;;999.90;;
27740;SDS011;15134;48.768;9.184;2023-08-17T12:05:18;1233.77;;;999.90;;
27740;SDS011;15134;48.768;9.184;2023-08-17T12:07:49;1235.60;;;999.90;;
27740;SDS011;15134;48.768;9.184;2023-08-17T12:10:15;1235.60;;;999.90;;
27740;SDS011;15134;48.768;9.184;2023-08-17T12:12:42;1235.45;;;999.90;;
27740;SDS011;15134;48.768;9.184;2023-08-17T12:15:09;1235.97;;;999.90;;
27740;SDS011;15134;48.768;9.184;2023-08-17T12:17:35;1232.25;;;999.90;;
27740;SDS011;15134;48.768;9.184;2023-08-17T12:20:14;1238.82;;;999.90;;
27740;SDS011;15134;48.768;9.184;2023-08-17T12:22:47;1235.70;;;999.90;;
27740;SDS011;15134;48.768;9.184;2023-08-17T12:25:13;1231.55;;;999.90;;
27740;SDS011;15134;48.768;9.184;2023-08-17T12:27:39;1238.25;;;999.90;;
27740;SDS011;15134;48.768;9.184;2023-08-17T12:30:11;1238.30;;;999.90;;
27740;SDS011;15134;48.768;9.184;2023-08-17T12:32:39;1237.50;;;999.90;;
27740;SDS011;15134;48.768;9.184;2023-08-17T12:35:04;1230.80;;;999.90;;
27740;SDS011;15134;48.768;9.184;2023-08-17T12:37:30;1232.77;;;999.90;;
27740;SDS011;15134;48.768;9.184;2023-08-17T12:39:57;1228.95;;;999.90;;
27740;SDS011;15134;48.768;9.184;2023-08-17T12:42:22;1231.20;;;999.90;;
27740;SDS011;15134;48.768;9.184;2023-08-17T12:44:48;1230.22;;;999.90;;
27740;SDS011;15134;48.768;9.184;2023-08-17T12:47:14;1217.68;;;999.90;;
27740;SDS011;15134;48.768;9.184;2023-08-17T12:49:40;1219.97;;;999.90;;
27740;SDS011;15134;48.768;9.184;2023-08-17T12:52:05;1222.45;;;999.90;;
27740;SDS011;15134;48.768;9.184;2023-08-17T12:54:33;1218.95;;;999.90;;
27740;SDS011;15134;48.768;9.184;2023-08-17T12:56:59;1218.07;;;999.90;;
27740;SDS011;15134;48.768;9.184;2023-08-17T12:59:24;1214.63;;;999.90;;
27740;SDS011;15134;48.768;9.184;2023-08-17T13:01:51;1215.07;;;999.90;;
27740;SDS011;15134;48.768;9.184;2023-08-17T13:04:17;1208.90;;;999.90;;
27740;SDS011;15134;48.768;9.184;2023-08-17T13:06:42;1206.47;;;999.90;;
27740;SDS011;15134;48.768;9.184;2023-08-17T13:09:08;1209.25;;;999.90;;
27740;SDS011;15134;48.768;9.184;2023-08-17T13:11:34;1202.75;;;999.90;;
27740;SDS011;15134;48.768;9.184;2023-08-17T13:14:00;1207.87;;;999.90;;
27740;SDS011;15134;48.768;9.184;2023-08-17T13:16:25;1202.97;;;999.90;;
27740;SDS011;15134;48.768;9.184;2023-08-17T13:18:51;1207.57;;;999.90;;
27740;SDS011;15134;48.768;9.184;2023-08-17T13:21:17;1205.33;;;999.90;;
27740;SDS011;15134;48.768;9.184;2023-08-17T13:23:43;1204.13;;;999.90;;
27740;SDS011;15134;48.768;9.184;2023-08-17T13:26:09;1198.20;;;999.90;;
27740;SDS011;15134;48.768;9.184;2023-08-17T13:28:35;1201.50;;;999.90;;
27740;SDS011;15134;48.768;9.184;2023-08-17T13:31:01;1203.43;;;999.90;;
27740;SDS011;15134;48.768;9.184;2023-08-17T13:33:26;1198.57;;;999.90;;
27740;SDS011;15134;48.768;9.184;2023-08-17T13:35:53;1196.57;;;999.90;;
27740;SDS011;15134;48.768;9.184;2023-08-17T13:38:23;1195.13;;;999.90;;
27740;SDS011;15134;48.768;9.184;2023-08-17T13:40:49;1190.47;;;999.90;;
27740;SDS011;15134;48.768;9.184;2023-08-17T13:43:14;1180.20;;;999.90;;
27740;SDS011;15134;48.768;9.184;2023-08-17T13:45:40;1176.47;;;999.90;;
27740;SDS011;15134;48.768;9.184;2023-08-17T13:48:07;1173.85;;;999.90;;
27740;SDS011;15134;48.768;9.184;2023-08-17T13:50:33;1175.93;;;999.90;;
27740;SDS011;15134;48.768;9.184;2023-08-17T13:53:08;1174.35;;;999.90;;
27740;SDS011;15134;48.768;9.184;2023-08-17T13:55:34;1174.23;;;999.90;;